UASS 171400Z VRB01MPS CAVOK 27/04 Q1008 NOSIG RMK QFE738/0984
QNH:(hPa/inHg/mmHg)1008 / 29.77 / 756
QFE:(hPa/inHg/mmHg)980 / 28.93 / 735
Temperature27
Dew Point4
Visibility> 10000
WeatherCAVOK
Cloud Cover
Transition Altitude10000 ft.
Transition LevelFL120
SQUAWK